createdAt,value
2023-05-14T00:00:19.224Z,98694.66
2023-05-14T00:02:45.738Z,98692.31
2023-05-14T00:05:12.294Z,98686.50
2023-05-14T00:07:38.668Z,98685.59
2023-05-14T00:10:05.470Z,98686.00
2023-05-14T00:12:32.234Z,98686.09
2023-05-14T00:14:58.620Z,98682.66
2023-05-14T00:17:25.014Z,98687.50
2023-05-14T00:19:51.420Z,98686.16
2023-05-14T00:22:17.772Z,98679.53
2023-05-14T00:24:44.153Z,98683.63
2023-05-14T00:27:10.802Z,98678.22
2023-05-14T00:29:37.165Z,98671.16
2023-05-14T00:32:03.974Z,98674.91
2023-05-14T00:34:30.453Z,98673.44
2023-05-14T00:36:56.836Z,98670.66
2023-05-14T00:39:23.203Z,98662.00
2023-05-14T00:41:49.684Z,98661.44
2023-05-14T00:44:16.050Z,98662.03
2023-05-14T00:46:43.762Z,98651.53
2023-05-14T00:49:10.704Z,98661.03
2023-05-14T00:51:37.214Z,98655.38
2023-05-14T00:54:03.727Z,98656.19
2023-05-14T00:56:30.157Z,98660.13
2023-05-14T00:58:56.522Z,98659.75
2023-05-14T01:01:23.171Z,98652.75
2023-05-14T01:03:49.936Z,98655.72
2023-05-14T01:06:48.102Z,98657.81
2023-05-14T01:09:23.798Z,98652.69
2023-05-14T01:12:27.275Z,98656.13
2023-05-14T01:15:05.797Z,98649.38
2023-05-14T01:17:37.140Z,98643.09
2023-05-14T01:20:03.894Z,98643.53
2023-05-14T01:22:30.268Z,98645.56
2023-05-14T01:24:56.633Z,98640.81
2023-05-14T01:27:34.569Z,98647.66
2023-05-14T01:30:35.752Z,98638.09
2023-05-14T01:33:06.888Z,98637.47
2023-05-14T01:35:33.714Z,98641.38
2023-05-14T01:38:01.779Z,98643.56
2023-05-14T01:40:29.006Z,98638.56
2023-05-14T01:42:56.387Z,98636.56
2023-05-14T01:45:23.973Z,98636.63
2023-05-14T01:47:50.834Z,98631.47
2023-05-14T01:50:17.538Z,98634.34
2023-05-14T01:52:44.025Z,98624.06
2023-05-14T01:55:10.935Z,98632.78
2023-05-14T01:57:37.469Z,98627.94
2023-05-14T02:00:04.354Z,98624.44
2023-05-14T02:02:31.181Z,98625.94
2023-05-14T02:04:57.551Z,98623.31
2023-05-14T02:07:24.016Z,98627.88
2023-05-14T02:09:50.605Z,98624.19
2023-05-14T02:12:16.979Z,98617.31
2023-05-14T02:14:43.346Z,98615.50
2023-05-14T02:17:09.837Z,98619.09
2023-05-14T02:19:36.204Z,98610.66
2023-05-14T02:22:02.673Z,98611.47
2023-05-14T02:24:29.181Z,98616.78
2023-05-14T02:26:55.603Z,98613.28
2023-05-14T02:29:22.081Z,98612.75
2023-05-14T02:31:48.531Z,98614.31
2023-05-14T02:34:15.032Z,98612.38
2023-05-14T02:36:41.733Z,98613.09
2023-05-14T02:39:08.068Z,98607.69
2023-05-14T02:41:34.557Z,98608.66
2023-05-14T02:44:01.884Z,98610.50
2023-05-14T02:46:28.329Z,98602.66
2023-05-14T02:48:54.724Z,98608.88
2023-05-14T02:51:21.494Z,98604.53
2023-05-14T02:53:47.965Z,98601.38
2023-05-14T02:56:14.600Z,98601.91
2023-05-14T02:58:41.128Z,98597.88
2023-05-14T03:01:07.752Z,98597.91
2023-05-14T03:03:35.277Z,98602.38
2023-05-14T03:06:02.037Z,98602.78
2023-05-14T03:08:28.486Z,98605.00
2023-05-14T03:10:54.872Z,98598.78
2023-05-14T03:13:21.311Z,98610.41
2023-05-14T03:15:47.697Z,98613.78
2023-05-14T03:18:15.085Z,98615.66
2023-05-14T03:20:41.730Z,98618.66
2023-05-14T03:23:08.318Z,98615.28
2023-05-14T03:25:34.873Z,98614.22
2023-05-14T03:28:01.278Z,98605.44
2023-05-14T03:30:27.721Z,98612.72
2023-05-14T03:32:54.322Z,98610.41
2023-05-14T03:35:20.719Z,98601.94
2023-05-14T03:37:47.127Z,98604.09
2023-05-14T03:40:13.466Z,98604.81
2023-05-14T03:42:39.869Z,98602.28
2023-05-14T03:45:07.370Z,98606.19
2023-05-14T03:47:33.733Z,98610.34
2023-05-14T03:50:00.190Z,98604.00
2023-05-14T03:52:26.569Z,98594.97
2023-05-14T03:54:53.003Z,98595.94
2023-05-14T03:57:19.466Z,98590.84
2023-05-14T03:59:45.853Z,98591.91
2023-05-14T04:02:12.436Z,98586.69
2023-05-14T04:04:38.991Z,98585.56
2023-05-14T04:07:05.406Z,98590.41
2023-05-14T04:09:31.805Z,98588.50
2023-05-14T04:11:58.195Z,98586.69
2023-05-14T04:14:24.655Z,98585.88
2023-05-14T04:16:51.045Z,98590.44
2023-05-14T04:19:18.372Z,98590.56
2023-05-14T04:21:45.284Z,98589.09
2023-05-14T04:24:11.649Z,98579.63
2023-05-14T04:26:38.027Z,98584.09
2023-05-14T04:29:04.377Z,98589.28
2023-05-14T04:31:31.599Z,98586.88
2023-05-14T04:33:58.068Z,98585.94
2023-05-14T04:36:24.799Z,98584.63
2023-05-14T04:38:51.808Z,98584.72
2023-05-14T04:41:18.238Z,98586.91
2023-05-14T04:43:44.602Z,98589.41
2023-05-14T04:46:11.510Z,98589.28
2023-05-14T04:48:38.025Z,98589.28
2023-05-14T04:51:06.362Z,98587.81
2023-05-14T04:53:33.518Z,98581.19
2023-05-14T04:55:59.949Z,98579.38
2023-05-14T04:58:28.801Z,98577.75
2023-05-14T05:00:55.203Z,98583.78
2023-05-14T05:03:21.707Z,98573.91
2023-05-14T05:05:48.239Z,98571.38
2023-05-14T05:08:14.770Z,98564.50
2023-05-14T05:10:41.331Z,98573.16
2023-05-14T05:13:07.705Z,98570.75
2023-05-14T05:15:34.093Z,98575.97
2023-05-14T05:18:00.664Z,98574.38
2023-05-14T05:20:28.286Z,98568.22
2023-05-14T05:22:54.851Z,98566.84
2023-05-14T05:25:21.482Z,98571.31
2023-05-14T05:27:47.918Z,98567.22
2023-05-14T05:30:14.426Z,98567.47
2023-05-14T05:32:40.975Z,98568.81
2023-05-14T05:35:07.698Z,98565.59
2023-05-14T05:37:34.073Z,98556.31
2023-05-14T05:40:00.536Z,98555.03
2023-05-14T05:42:26.992Z,98556.59
2023-05-14T05:44:53.595Z,98555.53
2023-05-14T05:47:20.021Z,98551.69
2023-05-14T05:49:46.444Z,98554.88
2023-05-14T05:52:12.976Z,98556.72
2023-05-14T05:54:39.880Z,98548.69
2023-05-14T05:57:06.512Z,98547.56
2023-05-14T05:59:32.995Z,98546.88
2023-05-14T06:01:59.369Z,98554.63
2023-05-14T06:04:25.825Z,98548.06
2023-05-14T06:06:52.195Z,98551.22
2023-05-14T06:09:18.705Z,98552.59
2023-05-14T06:11:45.251Z,98549.97
2023-05-14T06:14:11.817Z,98553.31
2023-05-14T06:16:38.352Z,98546.75
2023-05-14T06:19:04.911Z,98543.75
2023-05-14T06:21:31.353Z,98541.63
2023-05-14T06:23:57.998Z,98547.31
2023-05-14T06:26:24.406Z,98536.38
2023-05-14T06:28:50.928Z,98537.50
2023-05-14T06:31:18.278Z,98534.78
2023-05-14T06:33:45.193Z,98537.56
2023-05-14T06:36:11.810Z,98539.41
2023-05-14T06:38:38.209Z,98536.28
2023-05-14T06:41:04.674Z,98535.50
2023-05-14T06:43:31.167Z,98533.78
2023-05-14T06:45:57.830Z,98535.97
2023-05-14T06:48:24.335Z,98529.13
2023-05-14T06:50:50.926Z,98535.47
2023-05-14T06:53:17.509Z,98525.16
2023-05-14T06:55:44.043Z,98523.53
2023-05-14T06:58:10.382Z,98530.75
2023-05-14T07:00:36.923Z,98527.56
2023-05-14T07:03:03.342Z,98520.34
2023-05-14T07:05:29.863Z,98523.13
2023-05-14T07:07:56.422Z,98521.81
2023-05-14T07:10:23.741Z,98523.53
2023-05-14T07:12:50.507Z,98521.31
2023-05-14T07:15:16.970Z,98515.19
2023-05-14T07:17:43.388Z,98514.03
2023-05-14T07:20:10.504Z,98503.69
2023-05-14T07:22:36.842Z,98502.75
2023-05-14T07:25:03.494Z,98507.31
2023-05-14T07:27:29.874Z,98508.09
2023-05-14T07:29:56.249Z,98500.47
2023-05-14T07:32:24.258Z,98493.81
2023-05-14T07:34:50.790Z,98490.25
2023-05-14T07:37:17.274Z,98493.44
2023-05-14T07:39:43.889Z,98487.94
2023-05-14T07:42:10.285Z,98495.09
2023-05-14T07:44:36.675Z,98494.25
2023-05-14T07:47:04.195Z,98487.63
2023-05-14T07:49:30.630Z,98489.28
2023-05-14T07:51:56.987Z,98495.69
2023-05-14T07:54:23.336Z,98481.16
2023-05-14T07:56:49.704Z,98482.19
2023-05-14T07:59:16.092Z,98482.63
2023-05-14T08:01:42.494Z,98484.66
2023-05-14T08:04:11.576Z,98475.34
2023-05-14T08:06:38.279Z,98479.69
2023-05-14T08:09:07.290Z,98465.53
2023-05-14T08:11:33.772Z,98471.72
2023-05-14T08:14:00.221Z,98469.38
2023-05-14T08:16:26.756Z,98463.78
2023-05-14T08:18:53.255Z,98472.91
2023-05-14T08:21:19.657Z,98478.63
2023-05-14T08:23:46.113Z,98470.28
2023-05-14T08:26:12.476Z,98471.06
2023-05-14T08:28:38.803Z,98461.53
2023-05-14T08:31:05.655Z,98468.84
2023-05-14T08:33:32.014Z,98468.53
2023-05-14T08:36:00.445Z,98467.03
2023-05-14T08:38:26.826Z,98460.34
2023-05-14T08:41:00.360Z,98457.81
2023-05-14T08:43:37.693Z,98466.88
2023-05-14T08:46:06.097Z,98467.25
2023-05-14T08:48:35.104Z,98459.41
2023-05-14T08:51:02.284Z,98474.31
2023-05-14T08:53:28.714Z,98475.09
2023-05-14T08:55:55.090Z,98468.81
2023-05-14T08:58:21.567Z,98467.44
2023-05-14T09:00:47.952Z,98465.66
2023-05-14T09:03:15.965Z,98472.66
2023-05-14T09:05:43.046Z,98464.56
2023-05-14T09:08:09.435Z,98470.47
2023-05-14T09:10:36.065Z,98461.69
2023-05-14T09:13:02.502Z,98463.19
2023-05-14T09:15:29.625Z,98461.72
2023-05-14T09:17:56.877Z,98462.47
2023-05-14T09:20:25.103Z,98459.91
2023-05-14T09:22:54.809Z,98463.56
2023-05-14T09:25:26.976Z,98462.47
2023-05-14T09:27:56.120Z,98461.72
2023-05-14T09:30:25.211Z,98452.91
2023-05-14T09:32:54.374Z,98452.16
2023-05-14T09:35:23.914Z,98446.69
2023-05-14T09:37:52.157Z,98444.84
2023-05-14T09:40:20.857Z,98450.28
2023-05-14T09:42:49.246Z,98449.09
2023-05-14T09:45:16.747Z,98446.53
2023-05-14T09:47:43.295Z,98438.41
2023-05-14T09:50:09.976Z,98431.75
2023-05-14T09:52:37.341Z,98443.44
2023-05-14T09:55:04.388Z,98430.19
2023-05-14T09:57:30.968Z,98435.78
2023-05-14T09:59:57.370Z,98421.84
2023-05-14T10:02:36.804Z,98423.78
2023-05-14T10:05:06.005Z,98426.72
2023-05-14T10:07:41.647Z,98421.06
2023-05-14T10:10:12.993Z,98424.72
2023-05-14T10:12:40.541Z,98424.38
2023-05-14T10:15:13.535Z,98418.66
2023-05-14T10:17:42.556Z,98413.56
2023-05-14T10:20:13.788Z,98404.75
2023-05-14T10:22:40.319Z,98404.16
2023-05-14T10:25:14.932Z,98400.66
2023-05-14T10:27:42.386Z,98396.31
2023-05-14T10:30:12.923Z,98389.47
2023-05-14T10:32:41.852Z,98392.25
2023-05-14T10:35:20.437Z,98381.50
2023-05-14T10:37:47.298Z,98383.28
2023-05-14T10:40:14.121Z,98373.47
2023-05-14T10:42:43.257Z,98374.56
2023-05-14T10:45:14.406Z,98371.28
2023-05-14T10:47:46.713Z,98374.50
2023-05-14T10:50:15.600Z,98373.69
2023-05-14T10:52:45.715Z,98371.09
2023-05-14T10:55:16.645Z,98369.72
2023-05-14T10:57:44.976Z,98369.13
2023-05-14T11:00:12.855Z,98362.25
2023-05-14T11:02:44.746Z,98368.84
2023-05-14T11:05:16.967Z,98359.63
2023-05-14T11:07:46.103Z,98354.31
2023-05-14T11:10:20.413Z,98357.94
2023-05-14T11:12:48.773Z,98352.22
2023-05-14T11:15:21.199Z,98356.25
2023-05-14T11:17:49.451Z,98343.91
2023-05-14T11:20:19.311Z,98345.97
2023-05-14T11:22:47.000Z,98343.38
2023-05-14T11:25:14.546Z,98336.91
2023-05-14T11:27:43.450Z,98334.47
2023-05-14T11:30:18.291Z,98334.78
2023-05-14T11:32:49.624Z,98337.00
2023-05-14T11:35:17.435Z,98336.41
2023-05-14T11:37:50.924Z,98332.25
2023-05-14T11:40:18.416Z,98330.25
2023-05-14T11:42:45.082Z,98326.72
2023-05-14T11:45:13.005Z,98323.56
2023-05-14T11:47:41.264Z,98321.72
2023-05-14T11:50:09.402Z,98322.97
2023-05-14T11:52:41.148Z,98322.19
2023-05-14T11:55:13.556Z,98323.72
2023-05-14T11:57:41.146Z,98319.50
2023-05-14T12:00:14.532Z,98327.00
2023-05-14T12:02:40.998Z,98324.09
2023-05-14T12:05:08.978Z,98321.53
2023-05-14T12:07:36.069Z,98312.44
2023-05-14T12:10:03.705Z,98311.53
2023-05-14T12:12:35.654Z,98307.78
2023-05-14T12:15:02.128Z,98306.97
2023-05-14T12:17:28.708Z,98297.53
2023-05-14T12:19:57.265Z,98296.00
2023-05-14T12:22:23.640Z,98292.22
2023-05-14T12:24:57.916Z,98300.94
2023-05-14T12:27:26.375Z,98293.09
2023-05-14T12:30:19.776Z,98288.44
2023-05-14T12:32:52.737Z,98292.88
2023-05-14T12:35:21.542Z,98285.22
2023-05-14T12:37:47.996Z,98276.00
2023-05-14T12:40:14.548Z,98278.28
2023-05-14T12:42:41.002Z,98279.84
2023-05-14T12:45:08.645Z,98269.81
2023-05-14T12:47:36.102Z,98272.66
2023-05-14T12:50:02.902Z,98267.75
2023-05-14T12:54:59.096Z,98255.75
2023-05-14T12:57:26.885Z,98256.03
2023-05-14T12:59:53.261Z,98243.16
2023-05-14T13:02:19.656Z,98251.50
2023-05-14T13:04:46.062Z,98242.94
2023-05-14T13:07:12.529Z,98239.25
2023-05-14T13:09:39.012Z,98248.34
2023-05-14T13:12:06.088Z,98249.84
2023-05-14T13:14:32.552Z,98242.31
2023-05-14T13:16:59.110Z,98250.69
2023-05-14T13:19:25.547Z,98257.94
2023-05-14T13:21:52.091Z,98246.97
2023-05-14T13:24:18.433Z,98250.44
2023-05-14T13:26:44.963Z,98247.13
2023-05-14T13:29:11.520Z,98243.59
2023-05-14T13:31:38.010Z,98237.00
2023-05-14T13:34:04.425Z,98239.56
2023-05-14T13:36:32.519Z,98234.66
2023-05-14T13:38:58.860Z,98230.19
2023-05-14T13:41:26.213Z,98223.63
2023-05-14T13:43:52.720Z,98231.47
2023-05-14T13:46:19.111Z,98223.41
2023-05-14T13:48:45.434Z,98220.81
2023-05-14T13:51:12.060Z,98221.97
2023-05-14T13:53:38.447Z,98213.78
2023-05-14T13:56:06.424Z,98221.50
2023-05-14T13:58:33.073Z,98216.28
2023-05-14T14:00:59.591Z,98215.44
2023-05-14T14:03:26.561Z,98206.19
2023-05-14T14:05:53.143Z,98213.28
2023-05-14T14:08:23.815Z,98213.34
2023-05-14T14:10:51.653Z,98209.47
2023-05-14T14:13:18.052Z,98218.41
2023-05-14T14:15:45.163Z,98206.31
2023-05-14T14:18:11.658Z,98203.00
2023-05-14T14:20:39.213Z,98200.78
2023-05-14T14:23:06.781Z,98201.00
2023-05-14T14:25:33.223Z,98185.88
2023-05-14T14:27:59.751Z,98190.16
2023-05-14T14:30:26.212Z,98185.31
2023-05-14T14:32:52.703Z,98181.75
2023-05-14T14:35:19.773Z,98189.78
2023-05-14T14:37:50.599Z,98181.28
2023-05-14T14:40:17.703Z,98177.31
2023-05-14T14:42:44.727Z,98177.00
2023-05-14T14:45:12.314Z,98176.59
2023-05-14T14:47:38.864Z,98176.41
2023-05-14T14:50:06.314Z,98175.78
2023-05-14T14:52:32.942Z,98176.69
2023-05-14T14:54:59.913Z,98177.28
2023-05-14T14:57:26.831Z,98162.53
2023-05-14T14:59:53.283Z,98164.78
2023-05-14T15:02:20.618Z,98160.84
2023-05-14T15:04:47.169Z,98168.53
2023-05-14T15:07:15.930Z,98167.16
2023-05-14T15:09:42.378Z,98163.31
2023-05-14T15:12:10.218Z,98158.44
2023-05-14T15:14:39.046Z,98161.97
2023-05-14T15:17:05.619Z,98159.28
2023-05-14T15:19:32.412Z,98152.31
2023-05-14T15:21:59.303Z,98171.00
2023-05-14T15:24:26.449Z,98152.66
2023-05-14T15:26:53.785Z,98156.63
2023-05-14T15:29:20.279Z,98160.50
2023-05-14T15:31:46.981Z,98150.03
2023-05-14T15:34:14.263Z,98160.50
2023-05-14T15:36:40.874Z,98147.88
2023-05-14T15:39:10.408Z,98153.28
2023-05-14T15:41:37.635Z,98154.72
2023-05-14T15:44:04.245Z,98158.13
2023-05-14T15:46:31.182Z,98142.03
2023-05-14T15:48:59.011Z,98144.44
2023-05-14T15:51:25.878Z,98149.19
2023-05-14T15:53:55.417Z,98149.81
2023-05-14T15:56:23.519Z,98151.59
2023-05-14T15:58:50.115Z,98145.28
2023-05-14T16:01:16.743Z,98142.94
2023-05-14T16:03:43.991Z,98144.13
2023-05-14T16:06:11.215Z,98149.41
2023-05-14T16:08:37.795Z,98139.34
2023-05-14T16:11:04.411Z,98138.66
2023-05-14T16:13:30.830Z,98136.94
2023-05-14T16:15:57.888Z,98138.53
2023-05-14T16:18:25.359Z,98137.66
2023-05-14T16:20:52.501Z,98145.31
2023-05-14T16:23:19.007Z,98138.69
2023-05-14T16:25:45.548Z,98142.63
2023-05-14T16:28:12.382Z,98142.53
2023-05-14T16:30:39.006Z,98132.28
2023-05-14T16:33:06.281Z,98138.09
2023-05-14T16:35:32.603Z,98135.81
2023-05-14T16:37:59.211Z,98131.41
2023-05-14T16:40:25.821Z,98128.22
2023-05-14T16:42:52.267Z,98123.31
2023-05-14T16:45:18.917Z,98127.13
2023-05-14T16:47:45.535Z,98123.69
2023-05-14T16:50:11.887Z,98127.81
2023-05-14T16:52:38.302Z,98130.13
2023-05-14T16:55:05.229Z,98129.69
2023-05-14T16:57:32.117Z,98123.22
2023-05-14T16:59:59.203Z,98124.34
2023-05-14T17:02:25.552Z,98121.28
2023-05-14T17:04:52.198Z,98124.59
2023-05-14T17:07:18.659Z,98121.75
2023-05-14T17:09:45.018Z,98120.47
2023-05-14T17:12:13.470Z,98115.63
2023-05-14T17:14:39.837Z,98124.16
2023-05-14T17:17:06.269Z,98121.47
2023-05-14T17:19:32.687Z,98123.41
2023-05-14T17:21:59.079Z,98122.25
2023-05-14T17:24:25.429Z,98123.22
2023-05-14T17:26:51.874Z,98125.88
2023-05-14T17:29:18.273Z,98130.28
2023-05-14T17:31:44.748Z,98133.94
2023-05-14T17:34:11.188Z,98128.81
2023-05-14T17:36:37.605Z,98136.63
2023-05-14T17:39:04.114Z,98134.03
2023-05-14T17:41:30.509Z,98122.63
2023-05-14T17:43:56.868Z,98129.53
2023-05-14T17:46:23.348Z,98131.00
2023-05-14T17:48:49.709Z,98129.09
2023-05-14T17:51:16.211Z,98127.78
2023-05-14T17:53:42.641Z,98119.78
2023-05-14T17:56:09.002Z,98122.19
2023-05-14T17:58:36.138Z,98129.03
2023-05-14T18:01:03.618Z,98117.22
2023-05-14T18:03:30.812Z,98127.34
2023-05-14T18:05:58.626Z,98129.59
2023-05-14T18:08:25.051Z,98128.69
2023-05-14T18:10:51.462Z,98121.09
2023-05-14T18:13:17.866Z,98127.69
2023-05-14T18:15:44.329Z,98126.59
2023-05-14T18:18:11.016Z,98125.53
2023-05-14T18:20:37.481Z,98130.03
2023-05-14T18:23:03.926Z,98135.84
2023-05-14T18:25:30.383Z,98135.22
2023-05-14T18:27:56.744Z,98141.56
2023-05-14T18:30:23.091Z,98137.13
2023-05-14T18:32:49.569Z,98142.56
2023-05-14T18:35:16.040Z,98144.81
2023-05-14T18:37:42.408Z,98140.88
2023-05-14T18:40:09.469Z,98150.81
2023-05-14T18:42:36.112Z,98155.19
2023-05-14T18:45:04.114Z,98160.38
2023-05-14T18:47:31.135Z,98159.63
2023-05-14T18:49:59.523Z,98160.06
2023-05-14T18:52:26.669Z,98158.53
2023-05-14T18:54:55.531Z,98155.31
2023-05-14T18:57:22.564Z,98156.41
2023-05-14T18:59:49.081Z,98152.00
2023-05-14T19:02:15.431Z,98153.88
2023-05-14T19:04:51.838Z,98153.50
2023-05-14T19:07:19.467Z,98153.50
2023-05-14T19:09:46.090Z,98163.75
2023-05-14T19:12:13.039Z,98163.41
2023-05-14T19:14:39.491Z,98163.38
2023-05-14T19:17:05.930Z,98168.81
2023-05-14T19:19:32.573Z,98170.34
2023-05-14T19:21:58.983Z,98164.81
2023-05-14T19:24:25.431Z,98165.50
2023-05-14T19:26:51.797Z,98160.41
2023-05-14T19:29:18.168Z,98161.84
2023-05-14T19:31:44.688Z,98162.22
2023-05-14T19:34:11.132Z,98164.75
2023-05-14T19:36:37.543Z,98166.53
2023-05-14T19:39:04.086Z,98162.84
2023-05-14T19:41:30.603Z,98164.31
2023-05-14T19:43:56.956Z,98158.47
2023-05-14T19:46:23.325Z,98163.56
2023-05-14T19:48:49.756Z,98159.19
2023-05-14T19:51:16.120Z,98157.69
2023-05-14T19:53:42.597Z,98149.25
2023-05-14T19:56:08.978Z,98151.13
2023-05-14T19:58:35.425Z,98156.56
2023-05-14T20:01:01.850Z,98149.63
2023-05-14T20:03:28.263Z,98145.97
2023-05-14T20:05:55.742Z,98147.78
2023-05-14T20:08:22.085Z,98150.69
2023-05-14T20:10:48.558Z,98147.41
2023-05-14T20:13:15.087Z,98146.31
2023-05-14T20:15:41.893Z,98142.25
2023-05-14T20:18:08.490Z,98133.09
2023-05-14T20:20:34.923Z,98130.19
2023-05-14T20:23:01.312Z,98126.84
2023-05-14T20:25:28.753Z,98130.06
2023-05-14T20:27:55.393Z,98127.91
2023-05-14T20:30:21.730Z,98125.38
2023-05-14T20:32:48.178Z,98121.75
2023-05-14T20:35:14.647Z,98115.19
2023-05-14T20:37:41.357Z,98117.28
2023-05-14T20:40:12.153Z,98112.88
2023-05-14T20:42:38.857Z,98108.78
2023-05-14T20:45:06.029Z,98105.50
2023-05-14T20:47:34.127Z,98110.56
2023-05-14T20:50:00.979Z,98110.97
2023-05-14T20:52:27.512Z,98105.91
2023-05-14T20:54:53.879Z,98099.66
2023-05-14T20:57:20.383Z,98098.97
2023-05-14T20:59:47.468Z,98101.06
2023-05-14T21:02:14.050Z,98094.78
2023-05-14T21:04:41.011Z,98093.31
2023-05-14T21:07:07.462Z,98095.84
2023-05-14T21:09:33.805Z,98092.94
2023-05-14T21:12:00.236Z,98087.41
2023-05-14T21:14:26.600Z,98080.75
2023-05-14T21:16:53.015Z,98078.19
2023-05-14T21:19:19.413Z,98079.66
2023-05-14T21:21:47.297Z,98077.09
2023-05-14T21:24:13.901Z,98066.16
2023-05-14T21:26:41.329Z,98061.81
2023-05-14T21:29:07.755Z,98062.16
2023-05-14T21:31:34.176Z,98069.78
2023-05-14T21:34:01.077Z,98068.34
2023-05-14T21:36:27.546Z,98062.53
2023-05-14T21:38:53.933Z,98059.88
2023-05-14T21:41:21.261Z,98066.13
2023-05-14T21:43:47.700Z,98065.44
2023-05-14T21:46:14.148Z,98060.34
2023-05-14T21:48:40.592Z,98056.00
2023-05-14T21:51:07.275Z,98049.81
2023-05-14T21:53:34.655Z,98046.59
2023-05-14T21:56:01.018Z,98046.91
2023-05-14T21:58:27.615Z,98042.94
2023-05-14T22:00:54.004Z,98035.25
2023-05-14T22:03:20.526Z,98044.00
2023-05-14T22:05:47.560Z,98041.09
2023-05-14T22:08:13.982Z,98034.53
2023-05-14T22:10:40.772Z,98038.22
2023-05-14T22:13:07.199Z,98044.78
2023-05-14T22:15:34.309Z,98032.78
2023-05-14T22:18:00.861Z,98033.53
2023-05-14T22:20:27.348Z,98035.31
2023-05-14T22:22:53.775Z,98032.34
2023-05-14T22:25:20.127Z,98030.22
2023-05-14T22:27:46.529Z,98019.97
2023-05-14T22:30:13.040Z,98023.16
2023-05-14T22:32:39.880Z,98021.41
2023-05-14T22:35:06.406Z,98026.63
2023-05-14T22:37:32.742Z,98020.88
2023-05-14T22:39:59.154Z,98016.91
2023-05-14T22:42:27.218Z,98017.69
2023-05-14T22:44:53.636Z,98009.31
2023-05-14T22:47:20.044Z,98002.03
2023-05-14T22:49:46.667Z,98006.06
2023-05-14T22:52:13.110Z,97998.03
2023-05-14T22:54:39.456Z,98009.31
2023-05-14T22:57:06.658Z,98000.56
2023-05-14T22:59:33.085Z,97992.91
2023-05-14T23:01:59.482Z,97989.28
2023-05-14T23:04:26.204Z,97985.63
2023-05-14T23:06:52.573Z,97994.38
2023-05-14T23:09:19.134Z,97987.50
2023-05-14T23:11:46.049Z,97984.19
2023-05-14T23:14:12.452Z,97979.34
2023-05-14T23:16:38.898Z,97973.09
2023-05-14T23:19:05.406Z,97970.00
2023-05-14T23:21:32.082Z,97966.47
2023-05-14T23:23:58.444Z,97972.78
2023-05-14T23:26:24.776Z,97961.44
2023-05-14T23:28:51.593Z,97950.19
2023-05-14T23:31:18.131Z,97954.81
2023-05-14T23:33:44.716Z,97956.97
2023-05-14T23:36:11.177Z,97954.81
2023-05-14T23:38:37.646Z,97959.56
2023-05-14T23:41:04.075Z,97949.69
2023-05-14T23:43:30.520Z,97939.97
2023-05-14T23:45:56.974Z,97933.09
2023-05-14T23:48:23.386Z,97926.72
2023-05-14T23:50:49.853Z,97917.66
2023-05-14T23:53:16.198Z,97919.88
2023-05-14T23:55:42.618Z,97918.78
2023-05-14T23:58:09.016Z,97912.97
